sensor_id;sensor_type;location;lat;lon;timestamp;P1;durP1;ratioP1;P2;durP2;ratioP2
2462;SDS011;1243;54.298;10.172;2023-04-03T00:02:00;6.60;;;5.03;;
2462;SDS011;1243;54.298;10.172;2023-04-03T00:04:25;9.17;;;4.60;;
2462;SDS011;1243;54.298;10.172;2023-04-03T00:06:55;11.32;;;3.72;;
2462;SDS011;1243;54.298;10.172;2023-04-03T00:09:21;3.40;;;3.20;;
2462;SDS011;1243;54.298;10.172;2023-04-03T00:12:02;3.20;;;2.95;;
2462;SDS011;1243;54.298;10.172;2023-04-03T00:14:28;3.28;;;3.03;;
2462;SDS011;1243;54.298;10.172;2023-04-03T00:17:15;3.72;;;2.50;;
2462;SDS011;1243;54.298;10.172;2023-04-03T00:19:41;4.47;;;2.88;;
2462;SDS011;1243;54.298;10.172;2023-04-03T00:22:13;3.10;;;2.80;;
2462;SDS011;1243;54.298;10.172;2023-04-03T00:24:39;3.38;;;3.08;;
2462;SDS011;1243;54.298;10.172;2023-04-03T00:27:05;3.10;;;2.37;;
2462;SDS011;1243;54.298;10.172;2023-04-03T00:29:31;3.73;;;3.53;;
2462;SDS011;1243;54.298;10.172;2023-04-03T00:31:57;3.93;;;2.57;;
2462;SDS011;1243;54.298;10.172;2023-04-03T00:34:23;5.35;;;4.25;;
2462;SDS011;1243;54.298;10.172;2023-04-03T00:36:52;5.43;;;2.70;;
2462;SDS011;1243;54.298;10.172;2023-04-03T00:39:18;3.77;;;3.27;;
2462;SDS011;1243;54.298;10.172;2023-04-03T00:41:44;3.40;;;3.10;;
2462;SDS011;1243;54.298;10.172;2023-04-03T00:44:20;2.80;;;2.60;;
2462;SDS011;1243;54.298;10.172;2023-04-03T00:46:54;3.13;;;2.50;;
2462;SDS011;1243;54.298;10.172;2023-04-03T00:49:23;3.08;;;2.88;;
2462;SDS011;1243;54.298;10.172;2023-04-03T00:51:49;3.28;;;2.90;;
2462;SDS011;1243;54.298;10.172;2023-04-03T00:54:16;4.38;;;2.95;;
2462;SDS011;1243;54.298;10.172;2023-04-03T01:00:05;10.95;;;3.13;;
2462;SDS011;1243;54.298;10.172;2023-04-03T01:06:05;3.40;;;3.05;;
2462;SDS011;1243;54.298;10.172;2023-04-03T01:08:32;3.53;;;3.25;;
2462;SDS011;1243;54.298;10.172;2023-04-03T01:11:04;3.67;;;3.25;;
2462;SDS011;1243;54.298;10.172;2023-04-03T01:13:31;6.20;;;3.28;;
2462;SDS011;1243;54.298;10.172;2023-04-03T01:16:00;2.75;;;2.60;;
2462;SDS011;1243;54.298;10.172;2023-04-03T01:18:31;3.70;;;2.55;;
2462;SDS011;1243;54.298;10.172;2023-04-03T01:23:58;4.25;;;3.00;;
2462;SDS011;1243;54.298;10.172;2023-04-03T01:26:31;3.08;;;2.42;;
2462;SDS011;1243;54.298;10.172;2023-04-03T01:28:59;8.02;;;2.72;;
2462;SDS011;1243;54.298;10.172;2023-04-03T01:33:53;3.33;;;3.00;;
2462;SDS011;1243;54.298;10.172;2023-04-03T01:36:22;4.30;;;3.70;;
2462;SDS011;1243;54.298;10.172;2023-04-03T01:38:54;2.67;;;2.30;;
2462;SDS011;1243;54.298;10.172;2023-04-03T01:41:21;3.50;;;2.67;;
2462;SDS011;1243;54.298;10.172;2023-04-03T01:43:47;2.50;;;2.40;;
2462;SDS011;1243;54.298;10.172;2023-04-03T01:46:14;3.50;;;3.20;;
2462;SDS011;1243;54.298;10.172;2023-04-03T01:48:44;3.30;;;2.80;;
2462;SDS011;1243;54.298;10.172;2023-04-03T01:51:10;4.47;;;3.40;;
2462;SDS011;1243;54.298;10.172;2023-04-03T01:53:39;4.15;;;3.70;;
2462;SDS011;1243;54.298;10.172;2023-04-03T01:56:32;3.40;;;3.20;;
2462;SDS011;1243;54.298;10.172;2023-04-03T02:04:53;6.30;;;3.45;;
2462;SDS011;1243;54.298;10.172;2023-04-03T02:07:22;7.28;;;3.60;;
2462;SDS011;1243;54.298;10.172;2023-04-03T02:09:47;4.53;;;3.70;;
2462;SDS011;1243;54.298;10.172;2023-04-03T02:12:16;5.07;;;3.83;;
2462;SDS011;1243;54.298;10.172;2023-04-03T02:14:42;3.63;;;3.33;;
2462;SDS011;1243;54.298;10.172;2023-04-03T02:17:10;3.30;;;3.00;;
2462;SDS011;1243;54.298;10.172;2023-04-03T02:19:44;3.08;;;2.88;;
2462;SDS011;1243;54.298;10.172;2023-04-03T02:22:12;3.77;;;3.07;;
2462;SDS011;1243;54.298;10.172;2023-04-03T02:24:38;3.88;;;3.60;;
2462;SDS011;1243;54.298;10.172;2023-04-03T02:27:05;4.18;;;3.05;;
2462;SDS011;1243;54.298;10.172;2023-04-03T02:29:31;2.90;;;2.70;;
2462;SDS011;1243;54.298;10.172;2023-04-03T02:31:57;5.05;;;3.35;;
2462;SDS011;1243;54.298;10.172;2023-04-03T02:34:23;4.22;;;3.70;;
2462;SDS011;1243;54.298;10.172;2023-04-03T02:36:50;3.55;;;3.25;;
2462;SDS011;1243;54.298;10.172;2023-04-03T02:39:16;3.50;;;2.60;;
2462;SDS011;1243;54.298;10.172;2023-04-03T02:41:42;2.58;;;2.38;;
2462;SDS011;1243;54.298;10.172;2023-04-03T02:44:11;10.85;;;3.65;;
2462;SDS011;1243;54.298;10.172;2023-04-03T02:46:37;4.32;;;2.97;;
2462;SDS011;1243;54.298;10.172;2023-04-03T02:49:04;6.45;;;2.92;;
2462;SDS011;1243;54.298;10.172;2023-04-03T02:51:30;3.65;;;3.33;;
2462;SDS011;1243;54.298;10.172;2023-04-03T02:53:59;2.83;;;2.63;;
2462;SDS011;1243;54.298;10.172;2023-04-03T02:56:25;4.10;;;3.03;;
2462;SDS011;1243;54.298;10.172;2023-04-03T02:58:52;4.30;;;3.90;;
2462;SDS011;1243;54.298;10.172;2023-04-03T03:01:22;3.65;;;3.35;;
2462;SDS011;1243;54.298;10.172;2023-04-03T03:03:48;4.03;;;3.70;;
2462;SDS011;1243;54.298;10.172;2023-04-03T03:06:15;6.70;;;3.90;;
2462;SDS011;1243;54.298;10.172;2023-04-03T03:08:45;3.60;;;3.40;;
2462;SDS011;1243;54.298;10.172;2023-04-03T03:11:14;3.90;;;2.88;;
2462;SDS011;1243;54.298;10.172;2023-04-03T03:13:40;6.45;;;3.42;;
2462;SDS011;1243;54.298;10.172;2023-04-03T03:16:06;4.03;;;3.15;;
2462;SDS011;1243;54.298;10.172;2023-04-03T03:18:41;4.22;;;3.65;;
2462;SDS011;1243;54.298;10.172;2023-04-03T03:21:08;7.00;;;3.70;;
2462;SDS011;1243;54.298;10.172;2023-04-03T03:23:38;4.22;;;3.92;;
2462;SDS011;1243;54.298;10.172;2023-04-03T03:26:06;9.10;;;3.97;;
2462;SDS011;1243;54.298;10.172;2023-04-03T03:28:37;4.90;;;3.78;;
2462;SDS011;1243;54.298;10.172;2023-04-03T03:31:04;3.90;;;3.47;;
2462;SDS011;1243;54.298;10.172;2023-04-03T03:36:17;3.35;;;3.15;;
2462;SDS011;1243;54.298;10.172;2023-04-03T03:38:55;8.57;;;3.60;;
2462;SDS011;1243;54.298;10.172;2023-04-03T03:41:24;20.17;;;3.65;;
2462;SDS011;1243;54.298;10.172;2023-04-03T03:43:50;5.30;;;3.78;;
2462;SDS011;1243;54.298;10.172;2023-04-03T03:46:16;3.73;;;2.87;;
2462;SDS011;1243;54.298;10.172;2023-04-03T03:48:42;8.53;;;3.80;;
2462;SDS011;1243;54.298;10.172;2023-04-03T03:54:12;3.58;;;3.28;;
2462;SDS011;1243;54.298;10.172;2023-04-03T03:56:38;5.47;;;3.28;;
2462;SDS011;1243;54.298;10.172;2023-04-03T03:59:05;4.40;;;3.85;;
2462;SDS011;1243;54.298;10.172;2023-04-03T04:01:31;4.30;;;3.60;;
2462;SDS011;1243;54.298;10.172;2023-04-03T04:03:57;4.82;;;3.30;;
2462;SDS011;1243;54.298;10.172;2023-04-03T04:07:12;4.10;;;3.80;;
2462;SDS011;1243;54.298;10.172;2023-04-03T04:09:38;3.70;;;3.13;;
2462;SDS011;1243;54.298;10.172;2023-04-03T04:12:04;3.50;;;3.15;;
2462;SDS011;1243;54.298;10.172;2023-04-03T04:14:30;3.70;;;3.50;;
2462;SDS011;1243;54.298;10.172;2023-04-03T04:16:56;4.38;;;3.53;;
2462;SDS011;1243;54.298;10.172;2023-04-03T04:19:25;4.20;;;3.77;;
2462;SDS011;1243;54.298;10.172;2023-04-03T04:21:53;7.78;;;4.70;;
2462;SDS011;1243;54.298;10.172;2023-04-03T04:24:19;6.50;;;3.53;;
2462;SDS011;1243;54.298;10.172;2023-04-03T04:26:45;9.45;;;4.13;;
2462;SDS011;1243;54.298;10.172;2023-04-03T04:36:03;3.60;;;3.30;;
2462;SDS011;1243;54.298;10.172;2023-04-03T04:38:53;5.20;;;4.40;;
2462;SDS011;1243;54.298;10.172;2023-04-03T04:41:21;3.73;;;3.43;;
2462;SDS011;1243;54.298;10.172;2023-04-03T04:43:50;4.45;;;4.05;;
2462;SDS011;1243;54.298;10.172;2023-04-03T04:46:17;7.50;;;4.15;;
2462;SDS011;1243;54.298;10.172;2023-04-03T04:48:43;3.92;;;3.60;;
2462;SDS011;1243;54.298;10.172;2023-04-03T04:51:10;4.35;;;3.58;;
2462;SDS011;1243;54.298;10.172;2023-04-03T04:53:36;3.42;;;3.10;;
2462;SDS011;1243;54.298;10.172;2023-04-03T04:56:02;4.47;;;4.07;;
2462;SDS011;1243;54.298;10.172;2023-04-03T04:58:28;4.28;;;3.97;;
2462;SDS011;1243;54.298;10.172;2023-04-03T05:01:01;4.67;;;3.80;;
2462;SDS011;1243;54.298;10.172;2023-04-03T05:03:31;9.18;;;6.60;;
2462;SDS011;1243;54.298;10.172;2023-04-03T05:05:57;6.57;;;4.47;;
2462;SDS011;1243;54.298;10.172;2023-04-03T05:08:23;8.77;;;6.00;;
2462;SDS011;1243;54.298;10.172;2023-04-03T05:10:49;6.80;;;5.30;;
2462;SDS011;1243;54.298;10.172;2023-04-03T05:13:15;5.70;;;4.20;;
2462;SDS011;1243;54.298;10.172;2023-04-03T05:15:41;11.37;;;4.97;;
2462;SDS011;1243;54.298;10.172;2023-04-03T05:18:06;5.97;;;5.07;;
2462;SDS011;1243;54.298;10.172;2023-04-03T05:20:32;5.30;;;4.80;;
2462;SDS011;1243;54.298;10.172;2023-04-03T05:22:58;13.05;;;4.40;;
2462;SDS011;1243;54.298;10.172;2023-04-03T05:25:24;5.00;;;4.60;;
2462;SDS011;1243;54.298;10.172;2023-04-03T05:27:50;4.90;;;4.50;;
2462;SDS011;1243;54.298;10.172;2023-04-03T05:30:16;6.57;;;4.07;;
2462;SDS011;1243;54.298;10.172;2023-04-03T05:32:42;4.45;;;4.03;;
2462;SDS011;1243;54.298;10.172;2023-04-03T05:35:08;4.50;;;4.05;;
2462;SDS011;1243;54.298;10.172;2023-04-03T05:37:35;4.18;;;3.88;;
2462;SDS011;1243;54.298;10.172;2023-04-03T05:40:01;7.57;;;4.90;;
2462;SDS011;1243;54.298;10.172;2023-04-03T05:42:28;4.97;;;4.20;;
2462;SDS011;1243;54.298;10.172;2023-04-03T05:44:54;5.60;;;5.10;;
2462;SDS011;1243;54.298;10.172;2023-04-03T05:47:20;7.23;;;4.70;;
2462;SDS011;1243;54.298;10.172;2023-04-03T05:49:46;12.00;;;5.20;;
2462;SDS011;1243;54.298;10.172;2023-04-03T05:52:23;10.17;;;4.60;;
2462;SDS011;1243;54.298;10.172;2023-04-03T05:54:54;6.03;;;5.43;;
2462;SDS011;1243;54.298;10.172;2023-04-03T05:57:20;4.72;;;4.43;;
2462;SDS011;1243;54.298;10.172;2023-04-03T05:59:46;6.90;;;5.33;;
2462;SDS011;1243;54.298;10.172;2023-04-03T06:02:14;7.43;;;5.40;;
2462;SDS011;1243;54.298;10.172;2023-04-03T06:04:44;7.30;;;5.88;;
2462;SDS011;1243;54.298;10.172;2023-04-03T06:07:17;6.40;;;5.20;;
2462;SDS011;1243;54.298;10.172;2023-04-03T06:09:47;11.90;;;6.15;;
2462;SDS011;1243;54.298;10.172;2023-04-03T06:12:13;8.30;;;5.75;;
2462;SDS011;1243;54.298;10.172;2023-04-03T06:14:39;14.73;;;5.90;;
2462;SDS011;1243;54.298;10.172;2023-04-03T06:17:05;4.88;;;4.47;;
2462;SDS011;1243;54.298;10.172;2023-04-03T06:19:32;5.10;;;4.78;;
2462;SDS011;1243;54.298;10.172;2023-04-03T06:21:58;7.07;;;5.33;;
2462;SDS011;1243;54.298;10.172;2023-04-03T06:24:23;8.83;;;6.10;;
2462;SDS011;1243;54.298;10.172;2023-04-03T06:26:50;6.75;;;6.25;;
2462;SDS011;1243;54.298;10.172;2023-04-03T06:29:17;9.85;;;5.75;;
2462;SDS011;1243;54.298;10.172;2023-04-03T06:31:43;6.93;;;5.97;;
2462;SDS011;1243;54.298;10.172;2023-04-03T06:34:09;6.73;;;6.10;;
2462;SDS011;1243;54.298;10.172;2023-04-03T06:36:36;6.15;;;5.63;;
2462;SDS011;1243;54.298;10.172;2023-04-03T06:39:02;12.03;;;5.67;;
2462;SDS011;1243;54.298;10.172;2023-04-03T06:41:28;7.10;;;6.07;;
2462;SDS011;1243;54.298;10.172;2023-04-03T06:43:54;10.43;;;5.50;;
2462;SDS011;1243;54.298;10.172;2023-04-03T06:46:22;8.43;;;5.40;;
2462;SDS011;1243;54.298;10.172;2023-04-03T06:48:48;5.97;;;5.40;;
2462;SDS011;1243;54.298;10.172;2023-04-03T06:51:17;4.25;;;3.85;;
2462;SDS011;1243;54.298;10.172;2023-04-03T06:53:45;5.45;;;4.40;;
2462;SDS011;1243;54.298;10.172;2023-04-03T06:56:12;5.47;;;4.97;;
2462;SDS011;1243;54.298;10.172;2023-04-03T06:58:37;6.13;;;3.90;;
2462;SDS011;1243;54.298;10.172;2023-04-03T07:01:03;6.37;;;3.90;;
2462;SDS011;1243;54.298;10.172;2023-04-03T07:03:29;4.60;;;3.60;;
2462;SDS011;1243;54.298;10.172;2023-04-03T07:05:55;6.00;;;3.47;;
2462;SDS011;1243;54.298;10.172;2023-04-03T07:08:20;4.90;;;3.60;;
2462;SDS011;1243;54.298;10.172;2023-04-03T07:10:48;4.73;;;3.40;;
2462;SDS011;1243;54.298;10.172;2023-04-03T07:13:15;11.83;;;4.57;;
2462;SDS011;1243;54.298;10.172;2023-04-03T07:15:40;3.73;;;3.30;;
2462;SDS011;1243;54.298;10.172;2023-04-03T07:18:06;3.90;;;3.57;;
2462;SDS011;1243;54.298;10.172;2023-04-03T07:20:32;6.53;;;3.33;;
2462;SDS011;1243;54.298;10.172;2023-04-03T07:22:57;6.57;;;3.00;;
2462;SDS011;1243;54.298;10.172;2023-04-03T07:25:23;5.40;;;3.43;;
2462;SDS011;1243;54.298;10.172;2023-04-03T07:27:49;3.60;;;3.30;;
2462;SDS011;1243;54.298;10.172;2023-04-03T07:30:15;5.27;;;3.13;;
2462;SDS011;1243;54.298;10.172;2023-04-03T07:32:41;3.23;;;2.93;;
2462;SDS011;1243;54.298;10.172;2023-04-03T07:35:06;3.77;;;2.70;;
2462;SDS011;1243;54.298;10.172;2023-04-03T07:37:32;5.77;;;4.10;;
2462;SDS011;1243;54.298;10.172;2023-04-03T07:39:58;6.63;;;3.30;;
2462;SDS011;1243;54.298;10.172;2023-04-03T07:42:25;5.83;;;2.80;;
2462;SDS011;1243;54.298;10.172;2023-04-03T07:44:52;2.53;;;2.40;;
2462;SDS011;1243;54.298;10.172;2023-04-03T07:47:18;2.60;;;2.40;;
2462;SDS011;1243;54.298;10.172;2023-04-03T07:49:46;2.43;;;2.20;;
2462;SDS011;1243;54.298;10.172;2023-04-03T07:52:12;6.90;;;2.23;;
2462;SDS011;1243;54.298;10.172;2023-04-03T07:54:39;3.40;;;2.23;;
2462;SDS011;1243;54.298;10.172;2023-04-03T07:57:05;7.10;;;1.83;;
2462;SDS011;1243;54.298;10.172;2023-04-03T07:59:31;4.10;;;2.00;;
2462;SDS011;1243;54.298;10.172;2023-04-03T08:01:57;1.90;;;1.50;;
2462;SDS011;1243;54.298;10.172;2023-04-03T08:04:23;2.17;;;2.07;;
2462;SDS011;1243;54.298;10.172;2023-04-03T08:06:49;2.47;;;1.70;;
2462;SDS011;1243;54.298;10.172;2023-04-03T08:09:16;3.17;;;1.93;;
2462;SDS011;1243;54.298;10.172;2023-04-03T08:11:42;4.77;;;1.80;;
2462;SDS011;1243;54.298;10.172;2023-04-03T08:14:08;2.47;;;1.60;;
2462;SDS011;1243;54.298;10.172;2023-04-03T08:16:40;6.00;;;2.20;;
2462;SDS011;1243;54.298;10.172;2023-04-03T08:19:06;2.33;;;2.13;;
2462;SDS011;1243;54.298;10.172;2023-04-03T08:21:32;2.17;;;2.07;;
2462;SDS011;1243;54.298;10.172;2023-04-03T08:23:58;2.13;;;1.80;;
2462;SDS011;1243;54.298;10.172;2023-04-03T08:26:24;7.57;;;2.13;;
2462;SDS011;1243;54.298;10.172;2023-04-03T08:28:51;2.03;;;1.93;;
2462;SDS011;1243;54.298;10.172;2023-04-03T08:31:18;3.53;;;2.03;;
2462;SDS011;1243;54.298;10.172;2023-04-03T08:33:45;6.03;;;2.30;;
2462;SDS011;1243;54.298;10.172;2023-04-03T08:36:29;2.03;;;1.93;;
2462;SDS011;1243;54.298;10.172;2023-04-03T08:38:55;4.93;;;2.13;;
2462;SDS011;1243;54.298;10.172;2023-04-03T08:49:21;3.37;;;2.23;;
2462;SDS011;1243;54.298;10.172;2023-04-03T08:51:54;2.97;;;2.40;;
2462;SDS011;1243;54.298;10.172;2023-04-03T08:54:33;1.90;;;1.60;;
2462;SDS011;1243;54.298;10.172;2023-04-03T08:57:02;1.97;;;1.70;;
2462;SDS011;1243;54.298;10.172;2023-04-03T08:59:32;3.90;;;2.00;;
2462;SDS011;1243;54.298;10.172;2023-04-03T09:02:01;4.50;;;2.10;;
2462;SDS011;1243;54.298;10.172;2023-04-03T09:04:37;4.50;;;1.83;;
2462;SDS011;1243;54.298;10.172;2023-04-03T09:07:14;1.87;;;1.77;;
2462;SDS011;1243;54.298;10.172;2023-04-03T09:09:47;2.70;;;2.30;;
2462;SDS011;1243;54.298;10.172;2023-04-03T09:12:25;3.17;;;2.83;;
2462;SDS011;1243;54.298;10.172;2023-04-03T09:17:59;2.23;;;2.13;;
2462;SDS011;1243;54.298;10.172;2023-04-03T09:23:17;2.80;;;1.90;;
2462;SDS011;1243;54.298;10.172;2023-04-03T09:29:26;6.03;;;1.67;;
2462;SDS011;1243;54.298;10.172;2023-04-03T09:37:45;4.67;;;2.67;;
2462;SDS011;1243;54.298;10.172;2023-04-03T09:43:25;7.50;;;1.37;;
2462;SDS011;1243;54.298;10.172;2023-04-03T09:45:56;1.70;;;1.57;;
2462;SDS011;1243;54.298;10.172;2023-04-03T09:48:52;1.53;;;1.43;;
2462;SDS011;1243;54.298;10.172;2023-04-03T09:51:24;1.70;;;1.60;;
2462;SDS011;1243;54.298;10.172;2023-04-03T09:53:52;1.53;;;1.40;;
2462;SDS011;1243;54.298;10.172;2023-04-03T09:56:20;2.90;;;1.37;;
2462;SDS011;1243;54.298;10.172;2023-04-03T10:01:26;2.93;;;1.40;;
2462;SDS011;1243;54.298;10.172;2023-04-03T10:04:07;4.20;;;1.80;;
2462;SDS011;1243;54.298;10.172;2023-04-03T10:06:39;4.70;;;1.47;;
2462;SDS011;1243;54.298;10.172;2023-04-03T10:09:23;3.87;;;1.53;;
2462;SDS011;1243;54.298;10.172;2023-04-03T10:12:01;3.57;;;1.00;;
2462;SDS011;1243;54.298;10.172;2023-04-03T10:17:23;4.50;;;1.67;;
2462;SDS011;1243;54.298;10.172;2023-04-03T10:20:22;1.97;;;1.03;;
2462;SDS011;1243;54.298;10.172;2023-04-03T10:28:37;1.90;;;1.27;;
2462;SDS011;1243;54.298;10.172;2023-04-03T10:31:29;3.47;;;1.40;;
2462;SDS011;1243;54.298;10.172;2023-04-03T10:34:23;1.70;;;1.20;;
2462;SDS011;1243;54.298;10.172;2023-04-03T10:56:12;2.40;;;1.60;;
2462;SDS011;1243;54.298;10.172;2023-04-03T10:58:44;1.30;;;1.20;;
2462;SDS011;1243;54.298;10.172;2023-04-03T11:01:24;3.17;;;1.77;;
2462;SDS011;1243;54.298;10.172;2023-04-03T11:03:57;1.50;;;1.40;;
2462;SDS011;1243;54.298;10.172;2023-04-03T11:06:26;1.27;;;1.17;;
2462;SDS011;1243;54.298;10.172;2023-04-03T11:09:02;1.50;;;1.40;;
2462;SDS011;1243;54.298;10.172;2023-04-03T11:11:49;1.77;;;1.67;;
2462;SDS011;1243;54.298;10.172;2023-04-03T11:14:24;2.33;;;2.00;;
2462;SDS011;1243;54.298;10.172;2023-04-03T11:17:02;1.63;;;1.53;;
2462;SDS011;1243;54.298;10.172;2023-04-03T11:28:23;1.00;;;0.80;;
2462;SDS011;1243;54.298;10.172;2023-04-03T11:38:36;1.30;;;0.97;;
2462;SDS011;1243;54.298;10.172;2023-04-03T11:41:07;5.13;;;0.90;;
2462;SDS011;1243;54.298;10.172;2023-04-03T11:43:40;5.37;;;0.87;;
2462;SDS011;1243;54.298;10.172;2023-04-03T12:05:50;1.40;;;1.30;;
2462;SDS011;1243;54.298;10.172;2023-04-03T12:21:15;2.27;;;1.70;;
2462;SDS011;1243;54.298;10.172;2023-04-03T12:24:01;2.70;;;1.83;;
2462;SDS011;1243;54.298;10.172;2023-04-03T12:26:48;1.40;;;1.30;;
2462;SDS011;1243;54.298;10.172;2023-04-03T12:34:46;3.43;;;1.40;;
2462;SDS011;1243;54.298;10.172;2023-04-03T12:42:32;2.53;;;1.80;;
2462;SDS011;1243;54.298;10.172;2023-04-03T12:45:22;2.50;;;1.30;;
2462;SDS011;1243;54.298;10.172;2023-04-03T12:47:49;1.77;;;1.10;;
2462;SDS011;1243;54.298;10.172;2023-04-03T12:50:33;2.23;;;1.30;;
2462;SDS011;1243;54.298;10.172;2023-04-03T12:53:01;1.40;;;1.10;;
2462;SDS011;1243;54.298;10.172;2023-04-03T12:55:30;2.27;;;1.10;;
2462;SDS011;1243;54.298;10.172;2023-04-03T12:57:56;1.30;;;0.80;;
2462;SDS011;1243;54.298;10.172;2023-04-03T13:03:04;1.13;;;0.90;;
2462;SDS011;1243;54.298;10.172;2023-04-03T13:05:31;4.03;;;1.30;;
2462;SDS011;1243;54.298;10.172;2023-04-03T13:07:59;1.53;;;1.03;;
2462;SDS011;1243;54.298;10.172;2023-04-03T13:10:31;4.80;;;1.37;;
2462;SDS011;1243;54.298;10.172;2023-04-03T13:13:09;2.23;;;0.90;;
2462;SDS011;1243;54.298;10.172;2023-04-03T13:15:42;1.10;;;0.90;;
2462;SDS011;1243;54.298;10.172;2023-04-03T13:18:21;2.20;;;1.80;;
2462;SDS011;1243;54.298;10.172;2023-04-03T13:20:49;2.33;;;1.30;;
2462;SDS011;1243;54.298;10.172;2023-04-03T13:23:17;2.10;;;1.30;;
2462;SDS011;1243;54.298;10.172;2023-04-03T13:25:45;3.40;;;1.47;;
2462;SDS011;1243;54.298;10.172;2023-04-03T13:28:14;1.30;;;1.10;;
2462;SDS011;1243;54.298;10.172;2023-04-03T13:31:05;1.70;;;1.60;;
2462;SDS011;1243;54.298;10.172;2023-04-03T13:33:52;4.27;;;1.80;;
2462;SDS011;1243;54.298;10.172;2023-04-03T13:36:31;1.93;;;0.93;;
2462;SDS011;1243;54.298;10.172;2023-04-03T13:41:50;2.50;;;1.10;;
2462;SDS011;1243;54.298;10.172;2023-04-03T13:49:42;2.13;;;1.97;;
2462;SDS011;1243;54.298;10.172;2023-04-03T13:54:59;3.30;;;1.90;;
2462;SDS011;1243;54.298;10.172;2023-04-03T13:57:28;1.50;;;1.40;;
2462;SDS011;1243;54.298;10.172;2023-04-03T13:59:54;3.40;;;1.97;;
2462;SDS011;1243;54.298;10.172;2023-04-03T14:05:29;2.07;;;1.60;;
2462;SDS011;1243;54.298;10.172;2023-04-03T14:10:39;5.70;;;1.57;;
2462;SDS011;1243;54.298;10.172;2023-04-03T14:13:05;1.20;;;0.90;;
2462;SDS011;1243;54.298;10.172;2023-04-03T14:15:34;3.03;;;1.27;;
2462;SDS011;1243;54.298;10.172;2023-04-03T14:18:01;3.67;;;1.07;;
2462;SDS011;1243;54.298;10.172;2023-04-03T14:20:27;2.10;;;1.37;;
2462;SDS011;1243;54.298;10.172;2023-04-03T14:22:53;2.47;;;1.47;;
2462;SDS011;1243;54.298;10.172;2023-04-03T14:25:40;2.27;;;1.60;;
2462;SDS011;1243;54.298;10.172;2023-04-03T14:28:12;1.60;;;1.17;;
2462;SDS011;1243;54.298;10.172;2023-04-03T14:33:56;2.53;;;1.30;;
2462;SDS011;1243;54.298;10.172;2023-04-03T14:36:25;1.60;;;1.20;;
2462;SDS011;1243;54.298;10.172;2023-04-03T14:38:52;2.83;;;1.70;;
2462;SDS011;1243;54.298;10.172;2023-04-03T14:41:21;4.10;;;1.80;;
2462;SDS011;1243;54.298;10.172;2023-04-03T14:43:48;3.90;;;1.00;;
2462;SDS011;1243;54.298;10.172;2023-04-03T14:46:24;2.73;;;1.20;;
2462;SDS011;1243;54.298;10.172;2023-04-03T14:49:27;4.80;;;1.60;;
2462;SDS011;1243;54.298;10.172;2023-04-03T14:51:54;3.10;;;1.40;;
2462;SDS011;1243;54.298;10.172;2023-04-03T14:54:24;1.77;;;1.13;;
2462;SDS011;1243;54.298;10.172;2023-04-03T14:56:54;2.57;;;1.60;;
2462;SDS011;1243;54.298;10.172;2023-04-03T14:59:22;2.83;;;1.73;;
2462;SDS011;1243;54.298;10.172;2023-04-03T15:01:48;1.60;;;1.50;;
2462;SDS011;1243;54.298;10.172;2023-04-03T15:04:20;2.20;;;1.43;;
2462;SDS011;1243;54.298;10.172;2023-04-03T15:06:58;14.10;;;2.20;;
2462;SDS011;1243;54.298;10.172;2023-04-03T15:10:34;6.70;;;1.80;;
2462;SDS011;1243;54.298;10.172;2023-04-03T15:12:46;5.53;;;1.40;;
2462;SDS011;1243;54.298;10.172;2023-04-03T15:15:20;2.60;;;1.30;;
2462;SDS011;1243;54.298;10.172;2023-04-03T15:17:47;1.83;;;1.70;;
2462;SDS011;1243;54.298;10.172;2023-04-03T15:20:19;3.20;;;1.77;;
2462;SDS011;1243;54.298;10.172;2023-04-03T15:22:47;2.47;;;1.50;;
2462;SDS011;1243;54.298;10.172;2023-04-03T15:25:14;2.00;;;1.80;;
2462;SDS011;1243;54.298;10.172;2023-04-03T15:27:40;3.93;;;1.93;;
2462;SDS011;1243;54.298;10.172;2023-04-03T15:30:06;3.90;;;1.60;;
2462;SDS011;1243;54.298;10.172;2023-04-03T15:32:36;3.50;;;1.73;;
2462;SDS011;1243;54.298;10.172;2023-04-03T15:35:02;2.20;;;2.00;;
2462;SDS011;1243;54.298;10.172;2023-04-03T15:37:28;2.67;;;2.47;;
2462;SDS011;1243;54.298;10.172;2023-04-03T15:39:53;5.43;;;2.20;;
2462;SDS011;1243;54.298;10.172;2023-04-03T15:42:19;2.40;;;1.77;;
2462;SDS011;1243;54.298;10.172;2023-04-03T15:44:45;5.20;;;2.03;;
2462;SDS011;1243;54.298;10.172;2023-04-03T15:47:11;4.87;;;2.37;;
2462;SDS011;1243;54.298;10.172;2023-04-03T15:49:37;8.10;;;2.13;;
2462;SDS011;1243;54.298;10.172;2023-04-03T15:52:03;3.03;;;2.37;;
2462;SDS011;1243;54.298;10.172;2023-04-03T15:54:29;6.17;;;2.83;;
2462;SDS011;1243;54.298;10.172;2023-04-03T15:56:55;2.23;;;1.80;;
2462;SDS011;1243;54.298;10.172;2023-04-03T15:59:21;2.43;;;2.20;;
2462;SDS011;1243;54.298;10.172;2023-04-03T16:01:47;5.20;;;2.57;;
2462;SDS011;1243;54.298;10.172;2023-04-03T16:04:13;2.50;;;2.30;;
2462;SDS011;1243;54.298;10.172;2023-04-03T16:06:40;2.83;;;2.63;;
2462;SDS011;1243;54.298;10.172;2023-04-03T16:09:06;3.70;;;2.30;;
2462;SDS011;1243;54.298;10.172;2023-04-03T16:11:33;2.57;;;2.37;;
2462;SDS011;1243;54.298;10.172;2023-04-03T16:14:00;6.90;;;3.13;;
2462;SDS011;1243;54.298;10.172;2023-04-03T16:16:26;2.10;;;2.00;;
2462;SDS011;1243;54.298;10.172;2023-04-03T16:18:53;2.40;;;2.20;;
2462;SDS011;1243;54.298;10.172;2023-04-03T16:21:20;9.00;;;2.90;;
2462;SDS011;1243;54.298;10.172;2023-04-03T16:23:46;4.17;;;3.10;;
2462;SDS011;1243;54.298;10.172;2023-04-03T16:26:11;5.10;;;2.40;;
2462;SDS011;1243;54.298;10.172;2023-04-03T16:28:38;2.07;;;1.90;;
2462;SDS011;1243;54.298;10.172;2023-04-03T16:31:04;4.03;;;2.30;;
2462;SDS011;1243;54.298;10.172;2023-04-03T16:33:31;2.27;;;2.07;;
2462;SDS011;1243;54.298;10.172;2023-04-03T16:35:58;5.97;;;3.00;;
2462;SDS011;1243;54.298;10.172;2023-04-03T16:38:24;2.67;;;2.47;;
2462;SDS011;1243;54.298;10.172;2023-04-03T16:40:50;4.50;;;2.47;;
2462;SDS011;1243;54.298;10.172;2023-04-03T16:43:17;2.50;;;2.30;;
2462;SDS011;1243;54.298;10.172;2023-04-03T16:45:43;2.67;;;2.43;;
2462;SDS011;1243;54.298;10.172;2023-04-03T16:48:09;2.43;;;2.33;;
2462;SDS011;1243;54.298;10.172;2023-04-03T16:50:35;5.17;;;1.93;;
2462;SDS011;1243;54.298;10.172;2023-04-03T16:53:01;2.83;;;2.20;;
2462;SDS011;1243;54.298;10.172;2023-04-03T16:55:28;7.40;;;2.23;;
2462;SDS011;1243;54.298;10.172;2023-04-03T16:57:53;2.60;;;2.40;;
2462;SDS011;1243;54.298;10.172;2023-04-03T17:00:20;7.93;;;5.00;;
2462;SDS011;1243;54.298;10.172;2023-04-03T17:02:46;8.23;;;3.57;;
2462;SDS011;1243;54.298;10.172;2023-04-03T17:05:12;5.40;;;2.87;;
2462;SDS011;1243;54.298;10.172;2023-04-03T17:07:37;3.47;;;2.67;;
2462;SDS011;1243;54.298;10.172;2023-04-03T17:10:03;2.77;;;2.37;;
2462;SDS011;1243;54.298;10.172;2023-04-03T17:12:29;6.97;;;3.53;;
2462;SDS011;1243;54.298;10.172;2023-04-03T17:14:55;3.30;;;2.23;;
2462;SDS011;1243;54.298;10.172;2023-04-03T17:17:22;4.03;;;3.10;;
2462;SDS011;1243;54.298;10.172;2023-04-03T17:19:50;6.80;;;3.23;;
2462;SDS011;1243;54.298;10.172;2023-04-03T17:22:15;2.80;;;2.30;;
2462;SDS011;1243;54.298;10.172;2023-04-03T17:24:42;5.20;;;2.90;;
2462;SDS011;1243;54.298;10.172;2023-04-03T17:27:09;2.57;;;2.20;;
2462;SDS011;1243;54.298;10.172;2023-04-03T17:29:34;3.10;;;2.73;;
2462;SDS011;1243;54.298;10.172;2023-04-03T17:32:00;7.03;;;2.67;;
2462;SDS011;1243;54.298;10.172;2023-04-03T17:34:26;2.67;;;2.30;;
2462;SDS011;1243;54.298;10.172;2023-04-03T17:36:52;4.83;;;2.40;;
2462;SDS011;1243;54.298;10.172;2023-04-03T17:39:18;5.03;;;2.10;;
2462;SDS011;1243;54.298;10.172;2023-04-03T17:41:43;2.80;;;1.90;;
2462;SDS011;1243;54.298;10.172;2023-04-03T17:44:13;2.17;;;1.93;;
2462;SDS011;1243;54.298;10.172;2023-04-03T17:46:39;2.33;;;2.13;;
2462;SDS011;1243;54.298;10.172;2023-04-03T17:49:05;5.27;;;2.37;;
2462;SDS011;1243;54.298;10.172;2023-04-03T17:51:31;5.50;;;2.80;;
2462;SDS011;1243;54.298;10.172;2023-04-03T17:53:58;5.27;;;2.70;;
2462;SDS011;1243;54.298;10.172;2023-04-03T17:56:25;2.63;;;2.43;;
2462;SDS011;1243;54.298;10.172;2023-04-03T17:58:52;3.77;;;2.70;;
2462;SDS011;1243;54.298;10.172;2023-04-03T18:01:23;3.23;;;2.73;;
2462;SDS011;1243;54.298;10.172;2023-04-03T18:03:51;4.57;;;3.13;;